sensor_id;sensor_type;location;lat;lon;timestamp;P1;durP1;ratioP1;P2;durP2;ratioP2
2562;SDS011;1291;51.420;6.970;2022-09-09T00:00:37;1.17;;;0.80;;
2562;SDS011;1291;51.420;6.970;2022-09-09T00:03:12;1.63;;;0.60;;
2562;SDS011;1291;51.420;6.970;2022-09-09T00:06:04;3.25;;;1.10;;
2562;SDS011;1291;51.420;6.970;2022-09-09T00:08:54;0.52;;;0.52;;
2562;SDS011;1291;51.420;6.970;2022-09-09T00:11:28;0.70;;;0.70;;
2562;SDS011;1291;51.420;6.970;2022-09-09T00:22:27;1.30;;;0.55;;
2562;SDS011;1291;51.420;6.970;2022-09-09T00:24:57;2.22;;;0.85;;
2562;SDS011;1291;51.420;6.970;2022-09-09T00:27:45;3.47;;;0.70;;
2562;SDS011;1291;51.420;6.970;2022-09-09T00:30:32;1.65;;;1.00;;
2562;SDS011;1291;51.420;6.970;2022-09-09T00:33:01;1.20;;;0.82;;
2562;SDS011;1291;51.420;6.970;2022-09-09T00:35:47;1.67;;;0.98;;
2562;SDS011;1291;51.420;6.970;2022-09-09T00:38:24;2.92;;;0.80;;
2562;SDS011;1291;51.420;6.970;2022-09-09T00:43:36;2.10;;;0.80;;
2562;SDS011;1291;51.420;6.970;2022-09-09T00:49:19;2.58;;;0.85;;
2562;SDS011;1291;51.420;6.970;2022-09-09T00:51:59;1.67;;;0.60;;
2562;SDS011;1291;51.420;6.970;2022-09-09T00:59:59;2.15;;;0.80;;
2562;SDS011;1291;51.420;6.970;2022-09-09T01:08:52;2.42;;;1.10;;
2562;SDS011;1291;51.420;6.970;2022-09-09T01:17:03;4.90;;;1.63;;
2562;SDS011;1291;51.420;6.970;2022-09-09T01:19:55;4.72;;;1.77;;
2562;SDS011;1291;51.420;6.970;2022-09-09T01:27:34;2.80;;;1.60;;
2562;SDS011;1291;51.420;6.970;2022-09-09T01:30:05;2.58;;;1.52;;
2562;SDS011;1291;51.420;6.970;2022-09-09T01:32:42;5.00;;;1.38;;
2562;SDS011;1291;51.420;6.970;2022-09-09T01:37:59;4.28;;;1.80;;
2562;SDS011;1291;51.420;6.970;2022-09-09T01:40:25;5.28;;;1.17;;
2562;SDS011;1291;51.420;6.970;2022-09-09T01:42:51;2.70;;;1.60;;
2562;SDS011;1291;51.420;6.970;2022-09-09T01:45:18;5.63;;;1.60;;
2562;SDS011;1291;51.420;6.970;2022-09-09T01:47:44;4.93;;;1.80;;
2562;SDS011;1291;51.420;6.970;2022-09-09T01:50:11;4.13;;;1.95;;
2562;SDS011;1291;51.420;6.970;2022-09-09T01:52:39;4.00;;;1.83;;
2562;SDS011;1291;51.420;6.970;2022-09-09T01:55:06;6.90;;;2.20;;
2562;SDS011;1291;51.420;6.970;2022-09-09T01:57:35;3.85;;;1.80;;
2562;SDS011;1291;51.420;6.970;2022-09-09T02:00:19;3.85;;;1.60;;
2562;SDS011;1291;51.420;6.970;2022-09-09T02:03:00;3.53;;;1.95;;
2562;SDS011;1291;51.420;6.970;2022-09-09T02:08:55;2.97;;;1.52;;
2562;SDS011;1291;51.420;6.970;2022-09-09T02:11:22;2.17;;;1.40;;
2562;SDS011;1291;51.420;6.970;2022-09-09T02:13:51;3.17;;;1.45;;
2562;SDS011;1291;51.420;6.970;2022-09-09T02:16:27;3.33;;;1.40;;
2562;SDS011;1291;51.420;6.970;2022-09-09T02:19:49;2.60;;;1.60;;
2562;SDS011;1291;51.420;6.970;2022-09-09T02:21:57;3.75;;;1.73;;
2562;SDS011;1291;51.420;6.970;2022-09-09T02:24:26;4.03;;;1.40;;
2562;SDS011;1291;51.420;6.970;2022-09-09T02:26:54;2.75;;;1.50;;
2562;SDS011;1291;51.420;6.970;2022-09-09T02:29:42;4.13;;;1.90;;
2562;SDS011;1291;51.420;6.970;2022-09-09T02:32:11;2.90;;;1.52;;
2562;SDS011;1291;51.420;6.970;2022-09-09T02:34:41;5.00;;;1.55;;
2562;SDS011;1291;51.420;6.970;2022-09-09T02:37:10;1.50;;;1.40;;
2562;SDS011;1291;51.420;6.970;2022-09-09T02:39:37;6.45;;;1.58;;
2562;SDS011;1291;51.420;6.970;2022-09-09T02:42:03;2.33;;;1.60;;
2562;SDS011;1291;51.420;6.970;2022-09-09T02:44:29;3.88;;;1.60;;
2562;SDS011;1291;51.420;6.970;2022-09-09T02:52:09;3.83;;;1.90;;
2562;SDS011;1291;51.420;6.970;2022-09-09T02:54:42;5.97;;;2.17;;
2562;SDS011;1291;51.420;6.970;2022-09-09T02:57:19;7.00;;;2.10;;
2562;SDS011;1291;51.420;6.970;2022-09-09T02:59:51;3.95;;;2.20;;
2562;SDS011;1291;51.420;6.970;2022-09-09T03:02:17;10.27;;;3.25;;
2562;SDS011;1291;51.420;6.970;2022-09-09T03:04:46;6.35;;;2.50;;
2562;SDS011;1291;51.420;6.970;2022-09-09T03:07:16;6.28;;;2.80;;
2562;SDS011;1291;51.420;6.970;2022-09-09T03:09:42;9.68;;;2.70;;
2562;SDS011;1291;51.420;6.970;2022-09-09T03:12:08;7.80;;;2.78;;
2562;SDS011;1291;51.420;6.970;2022-09-09T03:14:36;3.97;;;2.60;;
2562;SDS011;1291;51.420;6.970;2022-09-09T03:17:03;5.65;;;2.63;;
2562;SDS011;1291;51.420;6.970;2022-09-09T03:19:29;3.22;;;2.25;;
2562;SDS011;1291;51.420;6.970;2022-09-09T03:21:56;4.32;;;2.40;;
2562;SDS011;1291;51.420;6.970;2022-09-09T03:24:25;4.20;;;2.47;;
2562;SDS011;1291;51.420;6.970;2022-09-09T03:26:50;3.75;;;2.10;;
2562;SDS011;1291;51.420;6.970;2022-09-09T03:29:19;6.40;;;2.13;;
2562;SDS011;1291;51.420;6.970;2022-09-09T03:31:44;5.75;;;2.20;;
2562;SDS011;1291;51.420;6.970;2022-09-09T03:34:10;5.65;;;2.00;;
2562;SDS011;1291;51.420;6.970;2022-09-09T03:36:36;3.53;;;1.60;;
2562;SDS011;1291;51.420;6.970;2022-09-09T03:39:02;5.68;;;1.83;;
2562;SDS011;1291;51.420;6.970;2022-09-09T03:41:28;4.15;;;1.67;;
2562;SDS011;1291;51.420;6.970;2022-09-09T03:43:54;4.57;;;2.00;;
2562;SDS011;1291;51.420;6.970;2022-09-09T03:46:20;3.80;;;1.88;;
2562;SDS011;1291;51.420;6.970;2022-09-09T03:48:47;4.45;;;1.50;;
2562;SDS011;1291;51.420;6.970;2022-09-09T03:51:13;3.35;;;1.83;;
2562;SDS011;1291;51.420;6.970;2022-09-09T03:53:44;4.35;;;1.58;;
2562;SDS011;1291;51.420;6.970;2022-09-09T03:56:09;5.00;;;1.80;;
2562;SDS011;1291;51.420;6.970;2022-09-09T03:58:36;3.83;;;1.63;;
2562;SDS011;1291;51.420;6.970;2022-09-09T04:01:03;2.22;;;1.58;;
2562;SDS011;1291;51.420;6.970;2022-09-09T04:03:38;2.20;;;1.77;;
2562;SDS011;1291;51.420;6.970;2022-09-09T04:06:04;4.07;;;1.52;;
2562;SDS011;1291;51.420;6.970;2022-09-09T04:08:32;3.17;;;1.45;;
2562;SDS011;1291;51.420;6.970;2022-09-09T04:10:59;5.40;;;2.10;;
2562;SDS011;1291;51.420;6.970;2022-09-09T04:13:26;5.38;;;1.45;;
2562;SDS011;1291;51.420;6.970;2022-09-09T04:15:53;3.45;;;1.58;;
2562;SDS011;1291;51.420;6.970;2022-09-09T04:18:20;1.73;;;1.15;;
2562;SDS011;1291;51.420;6.970;2022-09-09T04:20:47;3.45;;;1.35;;
2562;SDS011;1291;51.420;6.970;2022-09-09T04:23:13;6.53;;;1.52;;
2562;SDS011;1291;51.420;6.970;2022-09-09T04:25:46;6.15;;;1.63;;
2562;SDS011;1291;51.420;6.970;2022-09-09T04:28:16;6.35;;;1.83;;
2562;SDS011;1291;51.420;6.970;2022-09-09T04:30:45;7.13;;;1.50;;
2562;SDS011;1291;51.420;6.970;2022-09-09T04:33:11;6.03;;;1.65;;
2562;SDS011;1291;51.420;6.970;2022-09-09T04:35:38;5.10;;;1.75;;
2562;SDS011;1291;51.420;6.970;2022-09-09T04:38:05;5.47;;;1.70;;
2562;SDS011;1291;51.420;6.970;2022-09-09T04:40:34;3.95;;;1.42;;
2562;SDS011;1291;51.420;6.970;2022-09-09T04:43:00;6.43;;;2.13;;
2562;SDS011;1291;51.420;6.970;2022-09-09T04:45:28;4.72;;;1.98;;
2562;SDS011;1291;51.420;6.970;2022-09-09T04:47:53;4.03;;;2.05;;
2562;SDS011;1291;51.420;6.970;2022-09-09T04:50:23;4.53;;;1.50;;
2562;SDS011;1291;51.420;6.970;2022-09-09T04:52:48;4.80;;;1.67;;
2562;SDS011;1291;51.420;6.970;2022-09-09T04:55:16;4.22;;;1.98;;
2562;SDS011;1291;51.420;6.970;2022-09-09T04:57:42;5.55;;;1.67;;
2562;SDS011;1291;51.420;6.970;2022-09-09T05:00:08;4.82;;;2.30;;
2562;SDS011;1291;51.420;6.970;2022-09-09T05:02:38;5.38;;;2.20;;
2562;SDS011;1291;51.420;6.970;2022-09-09T05:05:04;7.55;;;1.95;;
2562;SDS011;1291;51.420;6.970;2022-09-09T05:07:31;4.47;;;2.00;;
2562;SDS011;1291;51.420;6.970;2022-09-09T05:09:57;4.55;;;2.22;;
2562;SDS011;1291;51.420;6.970;2022-09-09T05:12:22;7.82;;;2.42;;
2562;SDS011;1291;51.420;6.970;2022-09-09T05:14:51;4.88;;;1.98;;
2562;SDS011;1291;51.420;6.970;2022-09-09T05:17:17;7.00;;;2.10;;
2562;SDS011;1291;51.420;6.970;2022-09-09T05:19:43;4.82;;;1.80;;
2562;SDS011;1291;51.420;6.970;2022-09-09T05:22:09;5.22;;;2.50;;
2562;SDS011;1291;51.420;6.970;2022-09-09T05:24:36;5.07;;;2.15;;
2562;SDS011;1291;51.420;6.970;2022-09-09T05:27:03;6.05;;;2.28;;
2562;SDS011;1291;51.420;6.970;2022-09-09T05:29:29;5.38;;;2.15;;
2562;SDS011;1291;51.420;6.970;2022-09-09T05:31:54;4.80;;;1.85;;
2562;SDS011;1291;51.420;6.970;2022-09-09T05:34:20;3.53;;;1.83;;
2562;SDS011;1291;51.420;6.970;2022-09-09T05:36:45;7.00;;;2.45;;
2562;SDS011;1291;51.420;6.970;2022-09-09T05:39:12;5.97;;;2.20;;
2562;SDS011;1291;51.420;6.970;2022-09-09T05:41:37;2.40;;;1.80;;
2562;SDS011;1291;51.420;6.970;2022-09-09T05:44:03;6.18;;;2.03;;
2562;SDS011;1291;51.420;6.970;2022-09-09T05:46:28;3.22;;;1.85;;
2562;SDS011;1291;51.420;6.970;2022-09-09T05:48:54;7.38;;;1.98;;
2562;SDS011;1291;51.420;6.970;2022-09-09T05:51:20;4.85;;;2.00;;
2562;SDS011;1291;51.420;6.970;2022-09-09T05:53:49;5.47;;;2.28;;
2562;SDS011;1291;51.420;6.970;2022-09-09T05:56:20;3.83;;;1.98;;
2562;SDS011;1291;51.420;6.970;2022-09-09T05:58:50;6.55;;;2.25;;
2562;SDS011;1291;51.420;6.970;2022-09-09T06:01:19;6.07;;;1.73;;
2562;SDS011;1291;51.420;6.970;2022-09-09T06:03:46;5.72;;;1.98;;
2562;SDS011;1291;51.420;6.970;2022-09-09T06:06:15;3.08;;;2.00;;
2562;SDS011;1291;51.420;6.970;2022-09-09T06:08:52;7.97;;;2.03;;
2562;SDS011;1291;51.420;6.970;2022-09-09T06:11:21;4.75;;;2.25;;
2562;SDS011;1291;51.420;6.970;2022-09-09T06:14:00;4.20;;;2.28;;
2562;SDS011;1291;51.420;6.970;2022-09-09T06:16:26;6.10;;;2.38;;
2562;SDS011;1291;51.420;6.970;2022-09-09T06:18:53;5.00;;;2.30;;
2562;SDS011;1291;51.420;6.970;2022-09-09T06:21:23;6.30;;;2.38;;
2562;SDS011;1291;51.420;6.970;2022-09-09T06:23:52;6.50;;;2.20;;
2562;SDS011;1291;51.420;6.970;2022-09-09T06:28:45;5.10;;;2.00;;
2562;SDS011;1291;51.420;6.970;2022-09-09T06:31:13;4.55;;;2.22;;
2562;SDS011;1291;51.420;6.970;2022-09-09T06:33:40;6.80;;;2.70;;
2562;SDS011;1291;51.420;6.970;2022-09-09T06:36:07;5.90;;;2.13;;
2562;SDS011;1291;51.420;6.970;2022-09-09T06:38:39;6.25;;;2.10;;
2562;SDS011;1291;51.420;6.970;2022-09-09T06:41:05;8.23;;;2.45;;
2562;SDS011;1291;51.420;6.970;2022-09-09T06:43:31;5.47;;;2.40;;
2562;SDS011;1291;51.420;6.970;2022-09-09T06:46:01;6.03;;;2.50;;
2562;SDS011;1291;51.420;6.970;2022-09-09T06:48:29;4.95;;;2.15;;
2562;SDS011;1291;51.420;6.970;2022-09-09T06:53:30;7.25;;;2.80;;
2562;SDS011;1291;51.420;6.970;2022-09-09T06:55:58;4.07;;;2.40;;
2562;SDS011;1291;51.420;6.970;2022-09-09T06:58:25;4.00;;;2.45;;
2562;SDS011;1291;51.420;6.970;2022-09-09T07:00:51;6.03;;;2.08;;
2562;SDS011;1291;51.420;6.970;2022-09-09T07:03:16;7.15;;;2.55;;
2562;SDS011;1291;51.420;6.970;2022-09-09T07:05:42;4.80;;;2.20;;
2562;SDS011;1291;51.420;6.970;2022-09-09T07:08:10;6.68;;;2.33;;
2562;SDS011;1291;51.420;6.970;2022-09-09T07:10:35;7.82;;;2.40;;
2562;SDS011;1291;51.420;6.970;2022-09-09T07:13:01;6.57;;;2.10;;
2562;SDS011;1291;51.420;6.970;2022-09-09T07:15:27;4.85;;;1.92;;
2562;SDS011;1291;51.420;6.970;2022-09-09T07:17:52;7.20;;;2.20;;
2562;SDS011;1291;51.420;6.970;2022-09-09T07:20:18;5.93;;;2.30;;
2562;SDS011;1291;51.420;6.970;2022-09-09T07:22:45;4.68;;;2.13;;
2562;SDS011;1291;51.420;6.970;2022-09-09T07:25:11;4.85;;;1.77;;
2562;SDS011;1291;51.420;6.970;2022-09-09T07:27:36;5.85;;;1.80;;
2562;SDS011;1291;51.420;6.970;2022-09-09T07:30:02;5.43;;;1.92;;
2562;SDS011;1291;51.420;6.970;2022-09-09T07:32:28;3.63;;;1.63;;
2562;SDS011;1291;51.420;6.970;2022-09-09T07:34:55;6.10;;;1.80;;
2562;SDS011;1291;51.420;6.970;2022-09-09T07:37:23;4.40;;;2.00;;
2562;SDS011;1291;51.420;6.970;2022-09-09T07:39:49;6.78;;;2.00;;
2562;SDS011;1291;51.420;6.970;2022-09-09T07:42:16;5.88;;;1.60;;
2562;SDS011;1291;51.420;6.970;2022-09-09T07:44:45;5.28;;;1.70;;
2562;SDS011;1291;51.420;6.970;2022-09-09T07:47:10;6.85;;;1.67;;
2562;SDS011;1291;51.420;6.970;2022-09-09T07:49:35;4.18;;;1.67;;
2562;SDS011;1291;51.420;6.970;2022-09-09T07:52:01;5.93;;;1.65;;
2562;SDS011;1291;51.420;6.970;2022-09-09T07:54:27;6.95;;;1.80;;
2562;SDS011;1291;51.420;6.970;2022-09-09T07:56:52;5.82;;;1.90;;
2562;SDS011;1291;51.420;6.970;2022-09-09T07:59:18;6.20;;;1.73;;
2562;SDS011;1291;51.420;6.970;2022-09-09T08:01:47;6.05;;;1.35;;
2562;SDS011;1291;51.420;6.970;2022-09-09T08:04:16;5.45;;;1.70;;
2562;SDS011;1291;51.420;6.970;2022-09-09T08:06:44;5.80;;;1.80;;
2562;SDS011;1291;51.420;6.970;2022-09-09T08:09:15;5.47;;;2.08;;
2562;SDS011;1291;51.420;6.970;2022-09-09T08:11:41;3.97;;;1.70;;
2562;SDS011;1291;51.420;6.970;2022-09-09T08:14:08;3.40;;;1.60;;
2562;SDS011;1291;51.420;6.970;2022-09-09T08:16:39;4.45;;;1.60;;
2562;SDS011;1291;51.420;6.970;2022-09-09T08:19:14;8.10;;;2.13;;
2562;SDS011;1291;51.420;6.970;2022-09-09T08:21:40;4.75;;;1.95;;
2562;SDS011;1291;51.420;6.970;2022-09-09T08:24:07;3.83;;;1.70;;
2562;SDS011;1291;51.420;6.970;2022-09-09T08:26:36;3.20;;;1.60;;
2562;SDS011;1291;51.420;6.970;2022-09-09T08:29:04;5.60;;;2.13;;
2562;SDS011;1291;51.420;6.970;2022-09-09T08:31:33;6.97;;;2.00;;
2562;SDS011;1291;51.420;6.970;2022-09-09T08:34:00;4.32;;;1.70;;
2562;SDS011;1291;51.420;6.970;2022-09-09T08:36:29;7.45;;;2.03;;
2562;SDS011;1291;51.420;6.970;2022-09-09T08:38:58;5.90;;;1.55;;
2562;SDS011;1291;51.420;6.970;2022-09-09T08:41:42;4.30;;;1.30;;
2562;SDS011;1291;51.420;6.970;2022-09-09T08:53:14;4.47;;;1.70;;
2562;SDS011;1291;51.420;6.970;2022-09-09T08:55:51;6.22;;;1.48;;
2562;SDS011;1291;51.420;6.970;2022-09-09T09:06:13;3.30;;;1.27;;
2562;SDS011;1291;51.420;6.970;2022-09-09T09:09:11;5.05;;;2.25;;
2562;SDS011;1291;51.420;6.970;2022-09-09T09:11:55;5.93;;;1.48;;
2562;SDS011;1291;51.420;6.970;2022-09-09T09:14:26;5.75;;;1.98;;
2562;SDS011;1291;51.420;6.970;2022-09-09T09:17:03;3.13;;;1.65;;
2562;SDS011;1291;51.420;6.970;2022-09-09T09:19:32;4.13;;;1.60;;
2562;SDS011;1291;51.420;6.970;2022-09-09T09:22:19;14.13;;;1.92;;
2562;SDS011;1291;51.420;6.970;2022-09-09T09:27:33;6.57;;;1.90;;
2562;SDS011;1291;51.420;6.970;2022-09-09T09:32:40;2.50;;;1.35;;
2562;SDS011;1291;51.420;6.970;2022-09-09T09:35:12;5.30;;;1.58;;
2562;SDS011;1291;51.420;6.970;2022-09-09T09:37:41;5.25;;;1.88;;
2562;SDS011;1291;51.420;6.970;2022-09-09T09:40:16;5.20;;;1.65;;
2562;SDS011;1291;51.420;6.970;2022-09-09T09:48:06;8.75;;;1.63;;
2562;SDS011;1291;51.420;6.970;2022-09-09T09:50:35;6.47;;;1.45;;
2562;SDS011;1291;51.420;6.970;2022-09-09T09:53:20;2.70;;;1.45;;
2562;SDS011;1291;51.420;6.970;2022-09-09T09:55:59;4.85;;;1.65;;
2562;SDS011;1291;51.420;6.970;2022-09-09T09:58:30;7.20;;;1.50;;
2562;SDS011;1291;51.420;6.970;2022-09-09T10:00:59;7.13;;;1.60;;
2562;SDS011;1291;51.420;6.970;2022-09-09T10:03:29;6.82;;;1.55;;
2562;SDS011;1291;51.420;6.970;2022-09-09T10:05:57;3.80;;;1.55;;
2562;SDS011;1291;51.420;6.970;2022-09-09T10:08:26;5.82;;;1.50;;
2562;SDS011;1291;51.420;6.970;2022-09-09T10:19:13;5.57;;;1.15;;
2562;SDS011;1291;51.420;6.970;2022-09-09T10:24:27;3.95;;;1.17;;
2562;SDS011;1291;51.420;6.970;2022-09-09T10:30:13;3.42;;;1.00;;
2562;SDS011;1291;51.420;6.970;2022-09-09T10:35:49;6.30;;;1.25;;
2562;SDS011;1291;51.420;6.970;2022-09-09T10:38:42;2.00;;;0.80;;
2562;SDS011;1291;51.420;6.970;2022-09-09T10:43:50;5.10;;;1.52;;
2562;SDS011;1291;51.420;6.970;2022-09-09T10:52:53;2.33;;;1.15;;
2562;SDS011;1291;51.420;6.970;2022-09-09T10:55:35;5.28;;;1.00;;
2562;SDS011;1291;51.420;6.970;2022-09-09T10:58:08;4.85;;;1.17;;
2562;SDS011;1291;51.420;6.970;2022-09-09T11:00:49;4.53;;;1.13;;
2562;SDS011;1291;51.420;6.970;2022-09-09T11:03:28;5.80;;;1.30;;
2562;SDS011;1291;51.420;6.970;2022-09-09T11:08:29;6.57;;;1.50;;
2562;SDS011;1291;51.420;6.970;2022-09-09T11:21:50;1.85;;;0.90;;
2562;SDS011;1291;51.420;6.970;2022-09-09T11:24:22;2.70;;;1.10;;
2562;SDS011;1291;51.420;6.970;2022-09-09T11:27:02;0.82;;;0.80;;
2562;SDS011;1291;51.420;6.970;2022-09-09T11:29:43;2.20;;;0.90;;
2562;SDS011;1291;51.420;6.970;2022-09-09T11:34:56;2.58;;;1.02;;
2562;SDS011;1291;51.420;6.970;2022-09-09T11:40:28;1.90;;;1.00;;
2562;SDS011;1291;51.420;6.970;2022-09-09T11:43:01;1.60;;;1.20;;
2562;SDS011;1291;51.420;6.970;2022-09-09T11:45:50;2.42;;;1.15;;
2562;SDS011;1291;51.420;6.970;2022-09-09T11:48:32;1.35;;;0.80;;
2562;SDS011;1291;51.420;6.970;2022-09-09T11:51:12;2.70;;;0.80;;
2562;SDS011;1291;51.420;6.970;2022-09-09T11:54:02;2.15;;;1.17;;
2562;SDS011;1291;51.420;6.970;2022-09-09T11:56:48;2.38;;;1.08;;
2562;SDS011;1291;51.420;6.970;2022-09-09T11:59:20;5.32;;;1.10;;
2562;SDS011;1291;51.420;6.970;2022-09-09T12:01:49;5.07;;;1.48;;
2562;SDS011;1291;51.420;6.970;2022-09-09T12:06:53;2.47;;;0.90;;
2562;SDS011;1291;51.420;6.970;2022-09-09T12:25:18;1.77;;;1.05;;
2562;SDS011;1291;51.420;6.970;2022-09-09T12:30:56;2.63;;;1.15;;
2562;SDS011;1291;51.420;6.970;2022-09-09T12:33:33;4.50;;;1.20;;
2562;SDS011;1291;51.420;6.970;2022-09-09T12:36:00;3.97;;;1.08;;
2562;SDS011;1291;51.420;6.970;2022-09-09T12:38:39;1.80;;;0.90;;
2562;SDS011;1291;51.420;6.970;2022-09-09T12:41:06;3.05;;;0.93;;
2562;SDS011;1291;51.420;6.970;2022-09-09T12:43:44;3.80;;;1.33;;
2562;SDS011;1291;51.420;6.970;2022-09-09T12:46:12;2.63;;;0.98;;
2562;SDS011;1291;51.420;6.970;2022-09-09T12:48:46;3.33;;;0.98;;
2562;SDS011;1291;51.420;6.970;2022-09-09T12:51:19;2.47;;;1.13;;
2562;SDS011;1291;51.420;6.970;2022-09-09T12:53:50;2.72;;;1.08;;
2562;SDS011;1291;51.420;6.970;2022-09-09T12:56:20;4.05;;;1.40;;
2562;SDS011;1291;51.420;6.970;2022-09-09T12:58:48;3.42;;;0.90;;
2562;SDS011;1291;51.420;6.970;2022-09-09T13:01:32;6.10;;;1.10;;
2562;SDS011;1291;51.420;6.970;2022-09-09T13:03:58;4.10;;;1.35;;
2562;SDS011;1291;51.420;6.970;2022-09-09T13:06:25;1.85;;;1.10;;
2562;SDS011;1291;51.420;6.970;2022-09-09T13:08:57;3.22;;;1.00;;
2562;SDS011;1291;51.420;6.970;2022-09-09T13:13:56;2.67;;;1.00;;
2562;SDS011;1291;51.420;6.970;2022-09-09T13:16:25;2.33;;;0.80;;
2562;SDS011;1291;51.420;6.970;2022-09-09T13:18:57;3.35;;;1.55;;
2562;SDS011;1291;51.420;6.970;2022-09-09T13:21:43;4.35;;;1.02;;
2562;SDS011;1291;51.420;6.970;2022-09-09T13:24:24;2.97;;;0.98;;
2562;SDS011;1291;51.420;6.970;2022-09-09T13:27:01;2.92;;;1.10;;
2562;SDS011;1291;51.420;6.970;2022-09-09T13:29:30;2.47;;;1.08;;
2562;SDS011;1291;51.420;6.970;2022-09-09T13:32:04;5.38;;;1.52;;
2562;SDS011;1291;51.420;6.970;2022-09-09T13:34:34;3.08;;;1.17;;
2562;SDS011;1291;51.420;6.970;2022-09-09T13:37:01;2.67;;;0.95;;
2562;SDS011;1291;51.420;6.970;2022-09-09T13:39:33;3.10;;;1.70;;
2562;SDS011;1291;51.420;6.970;2022-09-09T13:42:01;6.45;;;0.93;;
2562;SDS011;1291;51.420;6.970;2022-09-09T13:44:31;3.35;;;1.10;;
2562;SDS011;1291;51.420;6.970;2022-09-09T13:49:29;0.80;;;0.80;;
2562;SDS011;1291;51.420;6.970;2022-09-09T13:52:11;4.95;;;1.17;;
2562;SDS011;1291;51.420;6.970;2022-09-09T13:54:39;2.38;;;0.80;;
2562;SDS011;1291;51.420;6.970;2022-09-09T13:57:11;2.58;;;0.90;;
2562;SDS011;1291;51.420;6.970;2022-09-09T13:59:46;3.70;;;0.98;;
2562;SDS011;1291;51.420;6.970;2022-09-09T14:02:12;3.38;;;0.80;;
2562;SDS011;1291;51.420;6.970;2022-09-09T14:04:38;2.65;;;1.00;;
2562;SDS011;1291;51.420;6.970;2022-09-09T14:07:07;3.03;;;1.27;;
2562;SDS011;1291;51.420;6.970;2022-09-09T14:09:36;1.90;;;0.80;;
2562;SDS011;1291;51.420;6.970;2022-09-09T14:12:01;4.03;;;1.08;;
2562;SDS011;1291;51.420;6.970;2022-09-09T14:14:27;3.75;;;1.52;;
2562;SDS011;1291;51.420;6.970;2022-09-09T14:16:56;2.92;;;1.20;;
2562;SDS011;1291;51.420;6.970;2022-09-09T14:19:24;2.40;;;1.00;;
2562;SDS011;1291;51.420;6.970;2022-09-09T14:21:50;2.20;;;0.90;;
2562;SDS011;1291;51.420;6.970;2022-09-09T14:24:15;4.00;;;1.35;;
2562;SDS011;1291;51.420;6.970;2022-09-09T14:26:41;4.07;;;1.13;;
2562;SDS011;1291;51.420;6.970;2022-09-09T14:29:06;1.95;;;1.00;;
2562;SDS011;1291;51.420;6.970;2022-09-09T14:31:32;5.43;;;1.50;;
2562;SDS011;1291;51.420;6.970;2022-09-09T14:33:58;2.40;;;1.25;;
2562;SDS011;1291;51.420;6.970;2022-09-09T14:36:24;4.28;;;1.42;;
2562;SDS011;1291;51.420;6.970;2022-09-09T14:38:49;5.00;;;1.60;;
2562;SDS011;1291;51.420;6.970;2022-09-09T14:41:16;4.65;;;1.20;;
2562;SDS011;1291;51.420;6.970;2022-09-09T14:43:43;2.45;;;1.40;;
2562;SDS011;1291;51.420;6.970;2022-09-09T14:46:13;4.57;;;1.67;;
2562;SDS011;1291;51.420;6.970;2022-09-09T14:48:40;4.70;;;1.55;;
2562;SDS011;1291;51.420;6.970;2022-09-09T14:51:16;4.22;;;1.73;;
2562;SDS011;1291;51.420;6.970;2022-09-09T14:53:53;4.18;;;1.30;;
2562;SDS011;1291;51.420;6.970;2022-09-09T14:56:21;1.77;;;1.20;;
2562;SDS011;1291;51.420;6.970;2022-09-09T14:58:48;3.95;;;1.08;;
2562;SDS011;1291;51.420;6.970;2022-09-09T15:01:14;1.65;;;0.65;;
2562;SDS011;1291;51.420;6.970;2022-09-09T15:03:42;1.02;;;0.40;;
2562;SDS011;1291;51.420;6.970;2022-09-09T15:06:14;1.95;;;0.60;;
2562;SDS011;1291;51.420;6.970;2022-09-09T15:08:41;2.88;;;0.90;;
2562;SDS011;1291;51.420;6.970;2022-09-09T15:11:08;0.43;;;0.35;;
2562;SDS011;1291;51.420;6.970;2022-09-09T15:13:35;0.90;;;0.43;;
2562;SDS011;1291;51.420;6.970;2022-09-09T15:16:17;0.50;;;0.50;;
2562;SDS011;1291;51.420;6.970;2022-09-09T15:18:44;1.40;;;0.50;;
2562;SDS011;1291;51.420;6.970;2022-09-09T15:21:15;1.85;;;0.40;;
2562;SDS011;1291;51.420;6.970;2022-09-09T15:23:42;2.85;;;0.50;;
2562;SDS011;1291;51.420;6.970;2022-09-09T15:26:08;1.90;;;0.50;;
2562;SDS011;1291;51.420;6.970;2022-09-09T15:28:35;0.55;;;0.40;;
2562;SDS011;1291;51.420;6.970;2022-09-09T15:31:15;0.28;;;0.28;;
2562;SDS011;1291;51.420;6.970;2022-09-09T15:33:51;0.65;;;0.60;;
2562;SDS011;1291;51.420;6.970;2022-09-09T15:36:30;3.05;;;1.15;;
2562;SDS011;1291;51.420;6.970;2022-09-09T15:38:58;0.68;;;0.55;;
2562;SDS011;1291;51.420;6.970;2022-09-09T15:41:24;0.68;;;0.32;;
2562;SDS011;1291;51.420;6.970;2022-09-09T15:43:54;0.93;;;0.40;;
2562;SDS011;1291;51.420;6.970;2022-09-09T15:46:34;1.58;;;0.63;;
2562;SDS011;1291;51.420;6.970;2022-09-09T15:49:20;1.65;;;0.47;;
2562;SDS011;1291;51.420;6.970;2022-09-09T15:52:01;0.63;;;0.43;;
2562;SDS011;1291;51.420;6.970;2022-09-09T15:54:28;2.15;;;0.52;;
2562;SDS011;1291;51.420;6.970;2022-09-09T15:56:57;2.05;;;0.40;;
2562;SDS011;1291;51.420;6.970;2022-09-09T15:59:25;1.55;;;0.55;;
2562;SDS011;1291;51.420;6.970;2022-09-09T16:01:53;1.17;;;0.73;;
2562;SDS011;1291;51.420;6.970;2022-09-09T16:04:20;0.80;;;0.43;;
2562;SDS011;1291;51.420;6.970;2022-09-09T16:07:01;0.52;;;0.47;;
2562;SDS011;1291;51.420;6.970;2022-09-09T16:09:31;0.82;;;0.50;;
2562;SDS011;1291;51.420;6.970;2022-09-09T16:11:58;0.70;;;0.55;;
2562;SDS011;1291;51.420;6.970;2022-09-09T16:14:26;1.48;;;0.73;;
2562;SDS011;1291;51.420;6.970;2022-09-09T16:16:52;0.65;;;0.40;;
2562;SDS011;1291;51.420;6.970;2022-09-09T16:19:18;1.27;;;0.50;;
2562;SDS011;1291;51.420;6.970;2022-09-09T16:21:48;1.52;;;0.80;;
2562;SDS011;1291;51.420;6.970;2022-09-09T16:24:16;0.88;;;0.70;;
2562;SDS011;1291;51.420;6.970;2022-09-09T16:26:45;0.80;;;0.60;;
2562;SDS011;1291;51.420;6.970;2022-09-09T16:29:14;0.95;;;0.80;;
2562;SDS011;1291;51.420;6.970;2022-09-09T16:31:41;2.03;;;0.77;;
2562;SDS011;1291;51.420;6.970;2022-09-09T16:34:07;1.42;;;1.00;;
2562;SDS011;1291;51.420;6.970;2022-09-09T16:36:34;1.85;;;1.15;;
2562;SDS011;1291;51.420;6.970;2022-09-09T16:39:04;1.65;;;0.95;;
2562;SDS011;1291;51.420;6.970;2022-09-09T16:41:33;3.78;;;1.50;;
2562;SDS011;1291;51.420;6.970;2022-09-09T16:44:00;1.70;;;1.20;;
2562;SDS011;1291;51.420;6.970;2022-09-09T16:46:28;4.88;;;1.73;;
2562;SDS011;1291;51.420;6.970;2022-09-09T16:48:56;3.17;;;1.45;;
2562;SDS011;1291;51.420;6.970;2022-09-09T16:51:36;5.65;;;1.67;;
2562;SDS011;1291;51.420;6.970;2022-09-09T16:54:03;4.53;;;1.27;;
2562;SDS011;1291;51.420;6.970;2022-09-09T16:56:31;2.78;;;1.33;;
2562;SDS011;1291;51.420;6.970;2022-09-09T16:59:03;2.65;;;1.35;;
2562;SDS011;1291;51.420;6.970;2022-09-09T17:01:33;2.45;;;1.20;;
2562;SDS011;1291;51.420;6.970;2022-09-09T17:04:06;2.20;;;1.33;;
2562;SDS011;1291;51.420;6.970;2022-09-09T17:06:33;2.20;;;1.42;;
2562;SDS011;1291;51.420;6.970;2022-09-09T17:09:00;2.17;;;1.20;;
2562;SDS011;1291;51.420;6.970;2022-09-09T17:11:28;4.88;;;1.50;;
2562;SDS011;1291;51.420;6.970;2022-09-09T17:13:54;4.05;;;1.50;;
2562;SDS011;1291;51.420;6.970;2022-09-09T17:16:21;6.07;;;1.67;;
2562;SDS011;1291;51.420;6.970;2022-09-09T17:18:51;6.70;;;1.80;;
2562;SDS011;1291;51.420;6.970;2022-09-09T17:21:21;3.08;;;1.65;;
2562;SDS011;1291;51.420;6.970;2022-09-09T17:23:48;4.43;;;1.60;;
2562;SDS011;1291;51.420;6.970;2022-09-09T17:26:15;3.75;;;1.50;;
2562;SDS011;1291;51.420;6.970;2022-09-09T17:28:43;2.47;;;1.55;;
2562;SDS011;1291;51.420;6.970;2022-09-09T17:31:11;2.75;;;1.60;;
2562;SDS011;1291;51.420;6.970;2022-09-09T17:33:38;3.35;;;1.48;;
2562;SDS011;1291;51.420;6.970;2022-09-09T17:36:10;4.30;;;1.60;;
2562;SDS011;1291;51.420;6.970;2022-09-09T17:38:39;2.95;;;1.48;;
2562;SDS011;1291;51.420;6.970;2022-09-09T17:43:35;3.72;;;1.70;;
2562;SDS011;1291;51.420;6.970;2022-09-09T17:48:34;2.80;;;1.90;;
2562;SDS011;1291;51.420;6.970;2022-09-09T17:51:02;6.32;;;1.75;;
2562;SDS011;1291;51.420;6.970;2022-09-09T17:53:42;3.35;;;1.45;;
2562;SDS011;1291;51.420;6.970;2022-09-09T17:56:09;3.55;;;1.85;;
2562;SDS011;1291;51.420;6.970;2022-09-09T17:58:36;3.38;;;1.50;;
2562;SDS011;1291;51.420;6.970;2022-09-09T18:01:25;3.90;;;2.00;;
2562;SDS011;1291;51.420;6.970;2022-09-09T18:03:51;2.72;;;1.30;;
2562;SDS011;1291;51.420;6.970;2022-09-09T18:06:26;5.18;;;1.90;;
2562;SDS011;1291;51.420;6.970;2022-09-09T18:08:55;3.67;;;1.90;;
2562;SDS011;1291;51.420;6.970;2022-09-09T18:11:24;2.75;;;1.73;;